Главная страница
METAR-TAF:

METAR-TAF

Аэропорты :

Кадуна, Нигерия

широта: 10-36N, долгота: 007-27E, высота над уровнем моря: 645 м

METAR: отсутствует

Время: 03:45 (02:45 UTC)

Прогноз

Эта сводка был подготовлена 3 часа и 45 минут назад, в 23:00 UTC
Прогноз действительный с 20-го 00 UTC до 21-го 06 UTC
Ветер 2 Узел переменных направлений
Видимость 10 км и более
Нет облачности ниже 1500 м, и нет кучево-дождевой облачности
изменения
С 20-го 09 UTC до 20-го 12 UTC
Ветер 10 Узел от юго-западный
Рассеянная облачность на высоте 1300 фута
изменения
С 20-го 16 UTC до 20-го 19 UTC
небольшая облачность на высоте 1200 фута
изменения
между VR и B0 UTC

TAF: DNKA 192300Z 2000/2106 VRB02KT CAVOK BECMG 2009/2012 23010KT BKN013 BECMG 2016/2019 FEW012 2021/2024 BECMG VRB02KT

Метеонаблюдения и прогнозы для более 4000 аэропортов (сводки METAR и TAF).

Имеющиеся станции представлены на карте желтыми и красными точками.

Чтобы увидеть название станции, наведите на нее мышь.

Затем щелкните, чтобы увидеть метеонаблюдения и метеопрогнозы.

Управление картой: чтобы увеличить масштаб, щелкните зеленые кнопки с черным крестиком; чтобы уменьшить масштаб, щелкните зеленую кнопку с тире; для просмотра соседних карт щелкайте зеленые стрелки.


METAR-TAF: